This is the latest recevied weather packets stored in our database for station/object KG5TTF. If no packets are shown the sender has not sent any weather packets the latest 1 day(s).
| Time | Temp. | Humidity | Pressure | Rain* | Wind** | Luminosity | Snow |
|---|---|---|---|---|---|---|---|
| 1778110536 | 2.22° C | 71% | 1021.8 hPa | 1.27 mm | - | 309 W/m² | - |
| 1778110233 | 2.22° C | 71% | 1021.6 hPa | 1.27 mm | - | 325 W/m² | - |
| 1778108414 | 2.78° C | 70% | 1021.8 hPa | 3.56 mm | - | 366 W/m² | - |
| 1778106290 | 0.56° C | 79% | 1022 hPa | 1.78 mm | - | 301 W/m² | - |
| 1778103253 | 1.11° C | 79% | 1022.5 hPa | 3.56 mm | - | 492 W/m² | - |
| 1778102950 | 1.11° C | 79% | 1022.4 hPa | 3.05 mm | - | 437 W/m² | - |
| 1778101431 | 1.11° C | 80% | 1022.7 hPa | 1.78 mm | - | 374 W/m² | - |
| 1778100824 | 2.22° C | 78% | 1022.5 hPa | 0 mm | - | 370 W/m² | - |
| 1778099916 | 3.33° C | 71% | 1022.7 hPa | 0 mm | - | 320 W/m² | - |
| 1778099613 | 3.33° C | 71% | 1023 hPa | 0 mm | - | 322 W/m² | - |
| 1778099007 | 2.22° C | 75% | 1023.3 hPa | 1.27 mm | - | 244 W/m² | - |
| 1778098703 | 1.67° C | 77% | 1022.9 hPa | 0 mm | - | 241 W/m² | - |
| 1778098401 | 2.22° C | 76% | 1023 hPa | 0 mm | - | 267 W/m² | - |
| 1778095368 | 0° C | 86% | 1022.7 hPa | 0 mm | - | 291 W/m² | - |
| 1778094761 | 0° C | 89% | 1023 hPa | 0 mm | - | 245 W/m² | - |
| 1778093852 | -0.56° C | 90% | 1023.1 hPa | 0 mm | - | 231 W/m² | - |
| 1778092943 | -0.56° C | 90% | 1023.2 hPa | 0 mm | - | 184 W/m² | - |
| 1778092640 | 0° C | 92% | 1023.2 hPa | 0 mm | - | 232 W/m² | - |
| 1778091125 | -0.56° C | 92% | 1022.9 hPa | 0 mm | - | 195 W/m² | - |
| 1778090214 | 0.56° C | 90% | 1023 hPa | 0 mm | - | 151 W/m² | - |
| 1778089305 | 0.56° C | 90% | 1022.9 hPa | 0 mm | - | 172 W/m² | - |
| 1778089004 | 0.56° C | 90% | 1023 hPa | 0 mm | - | 163 W/m² | - |
| 1778088700 | 0.56° C | 91% | 1023.1 hPa | 0 mm | - | 162 W/m² | - |
| 1778088093 | 0.56° C | 91% | 1022.9 hPa | 0 mm | - | 187 W/m² | - |
| 1778087482 | 0.56° C | 93% | 1022.6 hPa | 0 mm | - | 186 W/m² | - |
* Rain latest hour (hover to see other rain measurements)
** Current wind speed in m/s (hover to see current wind gust speed)